Allentown, Georgia
Current Conditions -  °F | °C
As of 9:35 AM on Sunday 23 Nov 2014 (Local Time) from KDBN Reporting Station
Light Rain Light Rain  
Wind Chill: 59°   Ceiling: 500
Heat Index: 59°   Visibility: 7mi
Dew Point: 59°   Wind: 9mph
Humidity: 100%   Direction: 100°E
Pressure: 30.02"   Gusts: 17mph
Location:  32.59°N, 83.23°W
Report Text: KDBN 231435Z AUTO 10008G15KT 7SM -RA OVC005 15/15 A3002 RMK AO2
Loading
Personal Weather Stations






























Interactive Weather Map New forecast layout! Learn more

10-Day Weather Forecast

Advertisements
Track Severe Weather on mobile